createdAt,value
2023-02-25T00:00:24.927Z,0.00
2023-02-25T00:01:24.907Z,0.00
2023-02-25T00:02:25.012Z,0.00
2023-02-25T00:03:24.951Z,0.00
2023-02-25T00:04:24.887Z,0.00
2023-02-25T00:05:24.882Z,0.00
2023-02-25T00:06:25.081Z,0.00
2023-02-25T00:07:24.892Z,0.00
2023-02-25T00:08:24.854Z,0.00
2023-02-25T00:09:24.854Z,0.00
2023-02-25T00:10:24.841Z,0.00
2023-02-25T00:11:24.829Z,0.00
2023-02-25T00:12:24.844Z,0.00
2023-02-25T00:13:24.817Z,0.00
2023-02-25T00:14:24.794Z,0.00
2023-02-25T00:15:25.799Z,0.00
2023-02-25T00:16:25.176Z,0.00
2023-02-25T00:17:24.812Z,0.00
2023-02-25T00:18:24.776Z,0.00
2023-02-25T00:19:24.773Z,0.00
2023-02-25T00:20:24.758Z,0.00
2023-02-25T00:21:24.754Z,0.00
2023-02-25T00:22:24.776Z,0.00
2023-02-25T00:23:24.739Z,0.00
2023-02-25T00:24:24.726Z,0.00
2023-02-25T00:25:24.723Z,0.00
2023-02-25T00:26:25.042Z,0.00
2023-02-25T00:27:24.740Z,0.00
2023-02-25T00:28:24.700Z,0.00
2023-02-25T00:29:24.685Z,0.00
2023-02-25T00:30:24.685Z,0.00
2023-02-25T00:31:24.788Z,0.00
2023-02-25T00:32:24.887Z,0.00
2023-02-25T00:33:24.708Z,0.00
2023-02-25T00:34:24.661Z,0.00
2023-02-25T00:35:24.653Z,0.00
2023-02-25T00:36:25.013Z,0.00
2023-02-25T00:37:24.632Z,0.00
2023-02-25T00:38:24.656Z,0.00
2023-02-25T00:39:24.719Z,0.00
2023-02-25T00:40:24.626Z,0.00
2023-02-25T00:41:24.611Z,0.00
2023-02-25T00:42:24.602Z,0.00
2023-02-25T00:43:24.617Z,0.00
2023-02-25T00:44:24.579Z,0.00
2023-02-25T00:45:24.572Z,0.00
2023-02-25T00:46:25.045Z,0.00
2023-02-25T00:47:24.556Z,0.00
2023-02-25T00:48:24.574Z,0.00
2023-02-25T00:49:32.000Z,0.00
2023-02-25T00:50:26.546Z,0.00
2023-02-25T00:51:24.523Z,0.00
2023-02-25T00:52:24.514Z,0.00
2023-02-25T00:53:24.535Z,0.00
2023-02-25T00:54:24.501Z,0.00
2023-02-25T00:55:24.493Z,0.00
2023-02-25T00:56:24.809Z,0.00
2023-02-25T00:57:24.478Z,0.00
2023-02-25T00:58:24.497Z,0.00
2023-02-25T00:59:24.468Z,0.00
2023-02-25T01:00:24.476Z,0.00
2023-02-25T01:01:24.486Z,0.00
2023-02-25T01:02:24.503Z,0.00
2023-02-25T01:03:25.464Z,0.00
2023-02-25T01:04:24.425Z,0.00
2023-02-25T01:05:24.429Z,0.00
2023-02-25T01:06:24.546Z,0.00
2023-02-25T01:07:24.401Z,0.00
2023-02-25T01:08:24.425Z,0.00
2023-02-25T01:09:24.395Z,0.00
2023-02-25T01:10:24.379Z,0.00
2023-02-25T01:11:24.372Z,0.00
2023-02-25T01:12:24.369Z,0.00
2023-02-25T01:13:24.387Z,0.00
2023-02-25T01:14:24.359Z,0.00
2023-02-25T01:15:24.338Z,0.00
2023-02-25T01:16:24.904Z,0.00
2023-02-25T01:17:24.332Z,0.00
2023-02-25T01:18:24.346Z,0.00
2023-02-25T01:19:24.307Z,0.00
2023-02-25T01:20:24.305Z,0.00
2023-02-25T01:21:24.292Z,0.00
2023-02-25T01:22:24.282Z,0.00
2023-02-25T01:23:24.298Z,0.00
2023-02-25T01:24:24.270Z,0.00
2023-02-25T01:25:24.255Z,0.00
2023-02-25T01:26:24.615Z,0.00
2023-02-25T01:27:24.264Z,0.00
2023-02-25T01:28:24.253Z,0.00
2023-02-25T01:29:24.245Z,0.00
2023-02-25T01:30:24.220Z,0.00
2023-02-25T01:31:24.287Z,0.00
2023-02-25T01:32:24.290Z,0.00
2023-02-25T01:33:24.216Z,0.00
2023-02-25T01:34:24.186Z,0.00
2023-02-25T01:35:24.174Z,0.00
2023-02-25T01:36:24.584Z,0.00
2023-02-25T01:37:24.170Z,0.00
2023-02-25T01:38:24.180Z,0.00
2023-02-25T01:39:26.276Z,0.00
2023-02-25T01:40:24.146Z,0.00
2023-02-25T01:41:24.136Z,0.00
2023-02-25T01:42:24.125Z,0.00
2023-02-25T01:43:24.152Z,0.00
2023-02-25T01:44:25.106Z,0.00
2023-02-25T01:45:24.100Z,0.00
2023-02-25T01:46:24.618Z,0.00
2023-02-25T01:47:24.087Z,0.00
2023-02-25T01:48:24.081Z,0.00
2023-02-25T01:49:24.093Z,0.00
2023-02-25T01:50:24.055Z,0.00
2023-02-25T01:51:25.057Z,0.00
2023-02-25T01:52:24.051Z,0.00
2023-02-25T01:53:24.206Z,0.00
2023-02-25T01:54:24.077Z,0.00
2023-02-25T01:55:24.028Z,0.00
2023-02-25T01:56:24.370Z,0.00
2023-02-25T01:57:23.997Z,0.00
2023-02-25T01:58:25.008Z,0.00
2023-02-25T01:59:24.022Z,0.00
2023-02-25T02:00:23.989Z,0.00
2023-02-25T02:01:23.987Z,0.00
2023-02-25T02:02:24.042Z,0.00
2023-02-25T02:03:23.965Z,0.00
2023-02-25T02:04:24.958Z,0.00
2023-02-25T02:05:23.951Z,0.00
2023-02-25T02:06:24.310Z,0.00
2023-02-25T02:07:23.929Z,0.00
2023-02-25T02:08:23.988Z,0.00
2023-02-25T02:09:23.964Z,0.00
2023-02-25T02:10:23.917Z,0.00
2023-02-25T02:11:23.950Z,0.00
2023-02-25T02:12:23.998Z,0.00
2023-02-25T02:13:23.886Z,0.00
2023-02-25T02:14:23.907Z,0.00
2023-02-25T02:15:23.876Z,0.00
2023-02-25T02:16:24.303Z,0.00
2023-02-25T02:17:23.857Z,0.00
2023-02-25T02:18:23.841Z,0.00
2023-02-25T02:19:23.856Z,0.00
2023-02-25T02:20:23.827Z,0.00
2023-02-25T02:21:23.819Z,0.00
2023-02-25T02:22:23.825Z,0.00
2023-02-25T02:23:23.803Z,0.00
2023-02-25T02:24:23.949Z,0.00
2023-02-25T02:25:23.785Z,0.00
2023-02-25T02:26:24.066Z,0.00
2023-02-25T02:27:23.786Z,0.00
2023-02-25T02:28:23.789Z,0.00
2023-02-25T02:29:23.797Z,0.00
2023-02-25T02:30:23.750Z,0.00
2023-02-25T02:31:23.754Z,0.00
2023-02-25T02:32:23.892Z,0.00
2023-02-25T02:33:23.727Z,0.00
2023-02-25T02:34:23.753Z,0.00
2023-02-25T02:35:23.709Z,0.00
2023-02-25T02:36:24.079Z,0.00
2023-02-25T02:37:23.711Z,0.00
2023-02-25T02:38:23.689Z,0.00
2023-02-25T02:39:23.684Z,0.00
2023-02-25T02:40:23.693Z,0.00
2023-02-25T02:41:23.669Z,0.00
2023-02-25T02:42:23.652Z,0.00
2023-02-25T02:43:23.658Z,0.00
2023-02-25T02:44:23.646Z,0.00
2023-02-25T02:45:23.708Z,0.00
2023-02-25T02:46:23.859Z,0.00
2023-02-25T02:47:23.612Z,0.00
2023-02-25T02:48:23.628Z,0.00
2023-02-25T02:49:23.603Z,0.00
2023-02-25T02:50:23.622Z,0.00
2023-02-25T02:51:23.585Z,0.00
2023-02-25T02:52:23.577Z,0.00
2023-02-25T02:53:23.585Z,0.00
2023-02-25T02:54:23.560Z,0.00
2023-02-25T02:55:23.582Z,0.00
2023-02-25T02:56:23.855Z,0.00
2023-02-25T02:57:23.545Z,0.00
2023-02-25T02:58:23.547Z,0.00
2023-02-25T02:59:23.541Z,0.00
2023-02-25T03:00:23.540Z,0.00
2023-02-25T03:01:23.559Z,0.00
2023-02-25T03:02:23.503Z,0.00
2023-02-25T03:03:23.495Z,0.00
2023-02-25T03:04:23.485Z,0.00
2023-02-25T03:05:23.502Z,0.00
2023-02-25T03:06:23.853Z,0.00
2023-02-25T03:07:24.459Z,0.00
2023-02-25T03:08:23.450Z,0.00
2023-02-25T03:09:23.448Z,0.00
2023-02-25T03:10:23.461Z,0.00
2023-02-25T03:11:23.433Z,0.00
2023-02-25T03:12:23.421Z,0.00
2023-02-25T03:13:23.452Z,0.00
2023-02-25T03:14:23.406Z,0.00
2023-02-25T03:15:23.435Z,0.00
2023-02-25T03:16:23.732Z,0.00
2023-02-25T03:17:23.384Z,0.00
2023-02-25T03:18:23.377Z,0.00
2023-02-25T03:19:23.365Z,0.00
2023-02-25T03:20:23.393Z,0.00
2023-02-25T03:21:23.357Z,0.00
2023-02-25T03:22:23.354Z,0.00
2023-02-25T03:23:23.348Z,0.00
2023-02-25T03:24:23.335Z,0.00
2023-02-25T03:25:23.362Z,0.00
2023-02-25T03:26:23.670Z,0.00
2023-02-25T03:27:23.313Z,0.00
2023-02-25T03:28:23.312Z,0.00
2023-02-25T03:29:23.296Z,0.00
2023-02-25T03:30:23.329Z,0.00
2023-02-25T03:31:23.292Z,0.00
2023-02-25T03:32:23.425Z,0.00
2023-02-25T03:33:23.268Z,0.00
2023-02-25T03:34:23.267Z,0.00
2023-02-25T03:35:23.285Z,0.00
2023-02-25T03:36:23.560Z,0.00
2023-02-25T03:37:23.242Z,0.00
2023-02-25T03:38:23.230Z,0.00
2023-02-25T03:39:23.223Z,0.00
2023-02-25T03:40:23.221Z,0.00
2023-02-25T03:41:23.249Z,0.00
2023-02-25T03:42:23.203Z,0.00
2023-02-25T03:43:23.193Z,0.00
2023-02-25T03:44:23.190Z,0.00
2023-02-25T03:45:23.184Z,0.00
2023-02-25T03:46:23.499Z,0.00
2023-02-25T03:47:23.162Z,0.00
2023-02-25T03:48:23.159Z,0.00
2023-02-25T03:49:23.156Z,0.00
2023-02-25T03:50:23.142Z,0.00
2023-02-25T03:51:23.161Z,0.00
2023-02-25T03:52:23.128Z,0.00
2023-02-25T03:53:23.125Z,0.00
2023-02-25T03:54:23.113Z,0.00
2023-02-25T03:55:23.108Z,0.00
2023-02-25T03:56:23.493Z,0.00
2023-02-25T03:57:23.095Z,0.00
2023-02-25T03:58:23.083Z,0.00
2023-02-25T03:59:23.069Z,0.00
2023-02-25T04:00:23.068Z,0.00
2023-02-25T04:01:23.080Z,0.00
2023-02-25T04:02:23.057Z,0.00
2023-02-25T04:03:23.038Z,0.00
2023-02-25T04:04:23.090Z,0.00
2023-02-25T04:05:23.027Z,0.00
2023-02-25T04:06:23.349Z,0.00
2023-02-25T04:07:23.005Z,0.00
2023-02-25T04:08:22.999Z,0.00
2023-02-25T04:09:22.988Z,0.00
2023-02-25T04:10:22.985Z,0.00
2023-02-25T04:11:23.001Z,0.00
2023-02-25T04:12:22.976Z,0.00
2023-02-25T04:13:22.959Z,0.00
2023-02-25T04:14:22.949Z,0.00
2023-02-25T04:15:22.944Z,0.00
2023-02-25T04:16:23.242Z,0.00
2023-02-25T04:17:22.933Z,0.00
2023-02-25T04:18:22.920Z,0.00
2023-02-25T04:19:22.907Z,0.00
2023-02-25T04:20:22.921Z,0.00
2023-02-25T04:21:22.922Z,0.00
2023-02-25T04:22:22.899Z,0.00
2023-02-25T04:23:22.877Z,0.00
2023-02-25T04:24:22.869Z,0.00
2023-02-25T04:25:22.861Z,0.00
2023-02-25T04:26:23.198Z,0.00
2023-02-25T04:27:22.848Z,0.00
2023-02-25T04:28:22.845Z,0.00
2023-02-25T04:29:22.835Z,0.00
2023-02-25T04:30:22.851Z,0.00
2023-02-25T04:31:22.981Z,0.00
2023-02-25T04:32:22.938Z,0.00
2023-02-25T04:33:22.812Z,0.00
2023-02-25T04:34:22.800Z,0.00
2023-02-25T04:35:22.793Z,0.00
2023-02-25T04:36:23.112Z,0.00
2023-02-25T04:37:22.796Z,0.00
2023-02-25T04:38:22.776Z,0.00
2023-02-25T04:39:22.763Z,0.00
2023-02-25T04:40:22.753Z,0.00
2023-02-25T04:41:22.746Z,0.00
2023-02-25T04:42:22.770Z,0.00
2023-02-25T04:43:22.726Z,0.00
2023-02-25T04:44:22.717Z,0.00
2023-02-25T04:45:23.939Z,0.00
2023-02-25T04:46:23.116Z,0.00
2023-02-25T04:47:22.720Z,0.00
2023-02-25T04:48:22.695Z,0.00
2023-02-25T04:49:22.693Z,0.00
2023-02-25T04:50:22.683Z,0.00
2023-02-25T04:51:22.670Z,0.00
2023-02-25T04:52:22.684Z,0.00
2023-02-25T04:53:22.654Z,0.00
2023-02-25T04:54:22.635Z,0.00
2023-02-25T04:55:22.630Z,0.00
2023-02-25T04:56:22.937Z,0.00
2023-02-25T04:57:22.649Z,0.00
2023-02-25T04:58:22.619Z,0.00
2023-02-25T04:59:22.602Z,0.00
2023-02-25T05:00:22.596Z,0.00
2023-02-25T05:01:22.614Z,0.00
2023-02-25T05:02:22.601Z,0.00
2023-02-25T05:03:22.569Z,0.00
2023-02-25T05:04:23.583Z,0.00
2023-02-25T05:05:22.551Z,0.00
2023-02-25T05:06:22.820Z,0.00
2023-02-25T05:07:22.569Z,0.00
2023-02-25T05:08:22.536Z,0.00
2023-02-25T05:09:22.525Z,0.00
2023-02-25T05:10:22.513Z,0.00
2023-02-25T05:11:23.517Z,0.00
2023-02-25T05:12:22.533Z,0.00
2023-02-25T05:13:22.495Z,0.00
2023-02-25T05:14:22.496Z,0.00
2023-02-25T05:15:22.482Z,0.00
2023-02-25T05:16:22.935Z,0.00
2023-02-25T05:17:22.491Z,0.00
2023-02-25T05:18:22.456Z,0.00
2023-02-25T05:19:22.448Z,0.00
2023-02-25T05:20:22.462Z,0.00
2023-02-25T05:21:22.435Z,0.00
2023-02-25T05:22:22.451Z,0.00
2023-02-25T05:23:22.421Z,0.00
2023-02-25T05:24:22.402Z,0.00
2023-02-25T05:25:22.401Z,0.00
2023-02-25T05:26:22.698Z,0.00
2023-02-25T05:27:22.412Z,0.00
2023-02-25T05:28:22.372Z,0.00
2023-02-25T05:29:22.380Z,0.00
2023-02-25T05:30:22.373Z,0.00
2023-02-25T05:31:22.531Z,0.00
2023-02-25T05:32:22.437Z,0.00
2023-02-25T05:33:23.346Z,0.00
2023-02-25T05:34:22.354Z,0.00
2023-02-25T05:35:22.350Z,0.00
2023-02-25T05:36:24.073Z,0.00
2023-02-25T05:37:22.325Z,0.00
2023-02-25T05:38:22.301Z,0.00
2023-02-25T05:39:22.290Z,0.00
2023-02-25T05:40:22.281Z,0.00
2023-02-25T05:41:22.274Z,0.00
2023-02-25T05:42:22.293Z,0.00
2023-02-25T05:43:22.258Z,0.00
2023-02-25T05:44:22.232Z,0.00
2023-02-25T05:45:23.244Z,0.00
2023-02-25T05:46:22.757Z,0.00
2023-02-25T05:47:22.252Z,0.00
2023-02-25T05:48:22.220Z,0.00
2023-02-25T05:49:22.206Z,0.00
2023-02-25T05:50:22.206Z,4.00
2023-02-25T05:51:22.196Z,0.00
2023-02-25T05:52:22.217Z,0.00
2023-02-25T05:53:22.179Z,4.00
2023-02-25T05:54:22.168Z,4.00
2023-02-25T05:55:22.158Z,4.00
2023-02-25T05:56:22.553Z,8.00
2023-02-25T05:57:22.177Z,8.00
2023-02-25T05:58:22.143Z,8.00
2023-02-25T05:59:22.130Z,12.00
2023-02-25T06:00:22.127Z,12.00
2023-02-25T06:01:22.115Z,16.00
2023-02-25T06:02:22.238Z,20.00
2023-02-25T06:03:22.205Z,24.00
2023-02-25T06:04:22.097Z,36.00
2023-02-25T06:05:22.094Z,48.00
2023-02-25T06:06:22.360Z,56.00
2023-02-25T06:07:22.072Z,60.00
2023-02-25T06:08:22.084Z,64.00
2023-02-25T06:09:22.054Z,64.00
2023-02-25T06:10:22.046Z,60.00
2023-02-25T06:11:22.036Z,56.00
2023-02-25T06:12:22.036Z,56.00
2023-02-25T06:13:22.064Z,60.00
2023-02-25T06:14:22.011Z,72.00
2023-02-25T06:15:22.003Z,84.00
2023-02-25T06:16:22.536Z,96.00
2023-02-25T06:17:21.991Z,100.00
2023-02-25T06:18:22.053Z,100.00
2023-02-25T06:19:21.984Z,112.00
2023-02-25T06:20:21.965Z,128.00
2023-02-25T06:21:21.977Z,136.00
2023-02-25T06:22:21.947Z,136.00
2023-02-25T06:23:21.968Z,140.00
2023-02-25T06:24:21.924Z,160.00
2023-02-25T06:25:21.922Z,200.00
2023-02-25T06:26:22.382Z,252.00
2023-02-25T06:27:21.904Z,292.00
2023-02-25T06:28:21.935Z,300.00
2023-02-25T06:29:21.889Z,292.00
2023-02-25T06:30:21.880Z,280.00
2023-02-25T06:31:21.897Z,260.00
2023-02-25T06:32:22.013Z,268.00
2023-02-25T06:33:21.892Z,288.00
2023-02-25T06:34:21.854Z,332.00
2023-02-25T06:35:21.887Z,376.00
2023-02-25T06:36:22.269Z,432.00
2023-02-25T06:37:21.821Z,496.00
2023-02-25T06:38:21.852Z,564.00
2023-02-25T06:39:21.801Z,620.00
2023-02-25T06:40:21.803Z,600.00
2023-02-25T06:41:21.806Z,556.00
2023-02-25T06:42:21.781Z,528.00
2023-02-25T06:43:21.802Z,500.00
2023-02-25T06:44:21.776Z,556.00
2023-02-25T06:45:21.775Z,680.00
2023-02-25T06:46:22.193Z,712.00
2023-02-25T06:47:21.743Z,784.00
2023-02-25T06:48:21.763Z,736.00
2023-02-25T06:49:21.728Z,652.00
2023-02-25T06:50:21.726Z,540.00
2023-02-25T06:51:21.710Z,468.00
2023-02-25T06:52:21.712Z,416.00
2023-02-25T06:53:21.743Z,440.00
2023-02-25T06:54:21.694Z,480.00
2023-02-25T06:55:21.690Z,496.00
2023-02-25T06:56:22.289Z,552.00
2023-02-25T06:57:21.672Z,576.00
2023-02-25T06:58:21.697Z,600.00
2023-02-25T06:59:21.650Z,620.00
2023-02-25T07:00:21.648Z,620.00
2023-02-25T07:01:21.673Z,672.00
2023-02-25T07:02:21.634Z,760.00
2023-02-25T07:03:21.654Z,804.00
2023-02-25T07:04:21.736Z,772.00
2023-02-25T07:05:21.621Z,728.00
2023-02-25T07:06:21.989Z,724.00
2023-02-25T07:07:21.583Z,732.00
2023-02-25T07:08:21.603Z,784.00
2023-02-25T07:09:21.577Z,836.00
2023-02-25T07:10:21.576Z,908.00
2023-02-25T07:11:21.565Z,940.00
2023-02-25T07:12:21.554Z,928.00
2023-02-25T07:13:21.570Z,832.00
2023-02-25T07:14:21.531Z,684.00
2023-02-25T07:15:21.542Z,596.00
2023-02-25T07:16:21.834Z,560.00
2023-02-25T07:17:21.516Z,520.00
2023-02-25T07:18:21.533Z,500.00
2023-02-25T07:19:21.515Z,500.00
2023-02-25T07:20:21.488Z,492.00
2023-02-25T07:21:21.487Z,536.00
2023-02-25T07:22:24.053Z,628.00
2023-02-25T07:23:21.496Z,756.00
2023-02-25T07:24:21.459Z,912.00
2023-02-25T07:25:21.541Z,1228.00
2023-02-25T07:26:21.645Z,1764.00
2023-02-25T07:27:21.446Z,2388.00
2023-02-25T07:28:21.452Z,2584.00
2023-02-25T07:29:21.446Z,2412.00
2023-02-25T07:30:21.422Z,1984.00
2023-02-25T07:31:21.528Z,1864.00
2023-02-25T07:32:21.546Z,1820.00
2023-02-25T07:33:21.418Z,1672.00
2023-02-25T07:34:21.399Z,1476.00
2023-02-25T07:35:21.373Z,1336.00
2023-02-25T07:36:21.373Z,1232.00
2023-02-25T07:37:21.360Z,972.00
2023-02-25T07:38:21.386Z,812.00
2023-02-25T07:39:21.343Z,784.00
2023-02-25T07:40:21.362Z,756.00
2023-02-25T07:41:21.482Z,628.00
2023-02-25T07:42:21.325Z,616.00
2023-02-25T07:43:21.345Z,708.00
2023-02-25T07:44:21.313Z,740.00
2023-02-25T07:45:21.294Z,696.00
2023-02-25T07:46:21.316Z,736.00
2023-02-25T07:47:21.279Z,816.00
2023-02-25T07:48:21.275Z,960.00
2023-02-25T07:49:21.298Z,1168.00
2023-02-25T07:50:21.261Z,1380.00
2023-02-25T07:51:21.573Z,1536.00
2023-02-25T07:52:21.252Z,1584.00
2023-02-25T07:53:21.235Z,1544.00
2023-02-25T07:54:21.287Z,1472.00
2023-02-25T07:55:21.219Z,1592.00
2023-02-25T07:56:21.211Z,1528.00
2023-02-25T07:57:21.201Z,1464.00
2023-02-25T07:58:21.206Z,1552.00
2023-02-25T07:59:21.218Z,1600.00
2023-02-25T08:00:21.204Z,1716.00
2023-02-25T08:01:21.617Z,1900.00
2023-02-25T08:02:21.210Z,2268.00
2023-02-25T08:03:21.161Z,2680.00
2023-02-25T08:04:21.262Z,2632.00
2023-02-25T08:05:21.142Z,2736.00
2023-02-25T08:06:21.142Z,2892.00
2023-02-25T08:07:21.127Z,2824.00
2023-02-25T08:08:21.122Z,2788.00
2023-02-25T08:09:21.135Z,2596.00
2023-02-25T08:10:21.112Z,2304.00
2023-02-25T08:11:21.270Z,2228.00
2023-02-25T08:12:21.092Z,2280.00
2023-02-25T08:13:21.082Z,2196.00
2023-02-25T08:14:21.104Z,1784.00
2023-02-25T08:15:21.073Z,1376.00
2023-02-25T08:16:21.127Z,1164.00
2023-02-25T08:17:21.053Z,1112.00
2023-02-25T08:18:21.044Z,1244.00
2023-02-25T08:19:21.062Z,1408.00
2023-02-25T08:20:21.023Z,1840.00
2023-02-25T08:21:21.411Z,2368.00
2023-02-25T08:22:21.010Z,2648.00
2023-02-25T08:23:21.014Z,2712.00
2023-02-25T08:24:21.020Z,3104.00
2023-02-25T08:25:20.981Z,3356.00
2023-02-25T08:26:20.977Z,3568.00
2023-02-25T08:27:20.967Z,3620.00
2023-02-25T08:28:21.004Z,3252.00
2023-02-25T08:29:20.974Z,2660.00
2023-02-25T08:30:20.957Z,2124.00
2023-02-25T08:31:21.161Z,1732.00
2023-02-25T08:32:21.036Z,1476.00
2023-02-25T08:33:20.926Z,1284.00
2023-02-25T08:34:20.951Z,968.00
2023-02-25T08:35:20.908Z,704.00
2023-02-25T08:36:20.928Z,744.00
2023-02-25T08:37:20.898Z,908.00
2023-02-25T08:38:20.899Z,1104.00
2023-02-25T08:39:20.909Z,1568.00
2023-02-25T08:40:20.888Z,1888.00
2023-02-25T08:41:21.110Z,2236.00
2023-02-25T08:42:20.856Z,2296.00
2023-02-25T08:43:20.856Z,2196.00
2023-02-25T08:44:20.875Z,1968.00
2023-02-25T08:45:20.830Z,1904.00
2023-02-25T08:46:21.391Z,1936.00
2023-02-25T08:47:21.814Z,2088.00
2023-02-25T08:48:20.811Z,2492.00
2023-02-25T08:49:20.833Z,2944.00
2023-02-25T08:50:20.802Z,3184.00
2023-02-25T08:51:20.907Z,3440.00
2023-02-25T08:52:20.776Z,3708.00
2023-02-25T08:53:20.763Z,3784.00
2023-02-25T08:54:20.785Z,3884.00
2023-02-25T08:55:20.754Z,4216.00
2023-02-25T08:56:20.747Z,4552.00
2023-02-25T08:57:20.737Z,4500.00
2023-02-25T08:58:20.740Z,4136.00
2023-02-25T08:59:20.904Z,4304.00
2023-02-25T09:00:20.735Z,4612.00
2023-02-25T09:01:20.811Z,4764.00
2023-02-25T09:02:20.693Z,4516.00
2023-02-25T09:03:20.689Z,4052.00
2023-02-25T09:04:20.742Z,3544.00
2023-02-25T09:05:20.916Z,3100.00
2023-02-25T09:06:21.672Z,2772.00
2023-02-25T09:07:20.662Z,2596.00
2023-02-25T09:08:20.658Z,2928.00
2023-02-25T09:09:20.667Z,3524.00
2023-02-25T09:10:20.638Z,4212.00
2023-02-25T09:11:20.957Z,5008.00
2023-02-25T09:12:22.412Z,5244.00
2023-02-25T09:13:20.612Z,5176.00
2023-02-25T09:14:20.642Z,5096.00
2023-02-25T09:15:20.599Z,5004.00
2023-02-25T09:16:20.746Z,4672.00
2023-02-25T09:17:20.604Z,4464.00
2023-02-25T09:18:20.640Z,4252.00
2023-02-25T09:19:20.600Z,3964.00
2023-02-25T09:20:20.577Z,3768.00
2023-02-25T09:21:20.626Z,3752.00
2023-02-25T09:22:20.582Z,3788.00
2023-02-25T09:23:20.537Z,4092.00
2023-02-25T09:24:20.582Z,4404.00
2023-02-25T09:25:20.526Z,4780.00
2023-02-25T09:26:20.519Z,5504.00
2023-02-25T09:27:20.504Z,5540.00
2023-02-25T09:28:21.973Z,5560.00
2023-02-25T09:29:20.527Z,5468.00
2023-02-25T09:30:20.494Z,5392.00
2023-02-25T09:31:20.621Z,5828.00
2023-02-25T09:32:20.623Z,6564.00
2023-02-25T09:33:20.456Z,7556.00
2023-02-25T09:34:20.475Z,8620.00
2023-02-25T09:35:20.444Z,16704.00
2023-02-25T09:36:20.440Z,11920.00
2023-02-25T09:37:20.421Z,10008.00
2023-02-25T09:38:20.426Z,13880.00
2023-02-25T09:39:20.433Z,8596.00
2023-02-25T09:40:20.396Z,8168.00
2023-02-25T09:41:20.553Z,7600.00
2023-02-25T09:42:20.393Z,9240.00
2023-02-25T09:43:20.392Z,5904.00
2023-02-25T09:44:20.405Z,6580.00
2023-02-25T09:45:20.368Z,7984.00
2023-02-25T09:46:20.403Z,10508.00
2023-02-25T09:47:20.376Z,11992.00
2023-02-25T09:48:20.342Z,12028.00
2023-02-25T09:49:20.374Z,10932.00
2023-02-25T09:50:20.338Z,9304.00
2023-02-25T09:51:20.406Z,8256.00
2023-02-25T09:52:20.319Z,7524.00
2023-02-25T09:53:20.305Z,6600.00
2023-02-25T09:54:20.336Z,5636.00
2023-02-25T09:55:20.304Z,5192.00
2023-02-25T09:56:20.288Z,4876.00
2023-02-25T09:57:20.324Z,4508.00
2023-02-25T09:58:20.346Z,3764.00
2023-02-25T09:59:20.307Z,2524.00
2023-02-25T10:00:20.315Z,1964.00
2023-02-25T10:01:20.261Z,2840.00
2023-02-25T10:02:20.349Z,3612.00
2023-02-25T10:03:20.332Z,4028.00
2023-02-25T10:04:20.250Z,3972.00
2023-02-25T10:05:20.222Z,3856.00
2023-02-25T10:06:20.209Z,3644.00
2023-02-25T10:07:20.200Z,3552.00
2023-02-25T10:08:20.199Z,3956.00
2023-02-25T10:09:20.214Z,4756.00
2023-02-25T10:10:20.216Z,4912.00
2023-02-25T10:11:20.183Z,5500.00
2023-02-25T10:12:20.398Z,5932.00
2023-02-25T10:13:21.166Z,6028.00
2023-02-25T10:14:20.180Z,6124.00
2023-02-25T10:15:20.140Z,6396.00
2023-02-25T10:16:20.167Z,6596.00
2023-02-25T10:17:20.135Z,6700.00
2023-02-25T10:18:20.123Z,6796.00
2023-02-25T10:19:20.118Z,6600.00
2023-02-25T10:20:20.121Z,6484.00
2023-02-25T10:21:20.111Z,6464.00
2023-02-25T10:22:20.088Z,6520.00
2023-02-25T10:23:20.078Z,6520.00
2023-02-25T10:24:20.069Z,6672.00
2023-02-25T10:25:20.085Z,7052.00
2023-02-25T10:26:20.047Z,7188.00
2023-02-25T10:27:20.044Z,7004.00
2023-02-25T10:28:20.042Z,6820.00
2023-02-25T10:29:20.028Z,6736.00
2023-02-25T10:30:21.038Z,6744.00
2023-02-25T10:31:20.117Z,6784.00
2023-02-25T10:32:20.173Z,6976.00
2023-02-25T10:33:19.995Z,7220.00
2023-02-25T10:34:19.987Z,7528.00
2023-02-25T10:35:20.004Z,7884.00
2023-02-25T10:36:20.000Z,8344.00
2023-02-25T10:37:19.964Z,8712.00
2023-02-25T10:38:19.988Z,9088.00
2023-02-25T10:39:19.947Z,9408.00
2023-02-25T10:40:20.972Z,9364.00
2023-02-25T10:41:19.929Z,9264.00
2023-02-25T10:42:19.932Z,9040.00
2023-02-25T10:43:19.930Z,9036.00
2023-02-25T10:44:19.913Z,9436.00
2023-02-25T10:45:19.929Z,8532.00
2023-02-25T10:46:19.920Z,8044.00
2023-02-25T10:47:19.897Z,7488.00
2023-02-25T10:48:19.894Z,7044.00
2023-02-25T10:49:19.868Z,6876.00
2023-02-25T10:50:19.885Z,6696.00
2023-02-25T10:51:19.852Z,6476.00
2023-02-25T10:52:19.889Z,6276.00
2023-02-25T10:53:19.837Z,6416.00
2023-02-25T10:54:19.829Z,7596.00
2023-02-25T10:55:19.858Z,7456.00
2023-02-25T10:56:19.810Z,7372.00
2023-02-25T10:57:19.807Z,7924.00
2023-02-25T10:58:19.822Z,7868.00
2023-02-25T10:59:19.806Z,7652.00
2023-02-25T11:00:19.806Z,7900.00
2023-02-25T11:01:19.880Z,7712.00
2023-02-25T11:02:19.840Z,7468.00
2023-02-25T11:03:19.780Z,7272.00
2023-02-25T11:04:19.773Z,7276.00
2023-02-25T11:05:19.778Z,6604.00
2023-02-25T11:06:22.127Z,7216.00
2023-02-25T11:07:19.759Z,7336.00
2023-02-25T11:08:19.722Z,6600.00
2023-02-25T11:09:19.711Z,6536.00
2023-02-25T11:10:19.742Z,6936.00
2023-02-25T11:11:19.712Z,8036.00
2023-02-25T11:12:19.690Z,9260.00
2023-02-25T11:13:19.680Z,9800.00
2023-02-25T11:14:19.680Z,11560.00
2023-02-25T11:15:19.666Z,11136.00
2023-02-25T11:16:19.799Z,10052.00
2023-02-25T11:17:19.654Z,9700.00
2023-02-25T11:18:19.690Z,8204.00
2023-02-25T11:19:19.640Z,7244.00
2023-02-25T11:20:19.648Z,6656.00
2023-02-25T11:21:19.647Z,6388.00
2023-02-25T11:22:19.625Z,6212.00
2023-02-25T11:23:19.622Z,6268.00
2023-02-25T11:24:19.608Z,6384.00
2023-02-25T11:25:19.593Z,6168.00
2023-02-25T11:26:19.611Z,5948.00
2023-02-25T11:27:19.574Z,5968.00
2023-02-25T11:28:19.586Z,6100.00
2023-02-25T11:29:19.572Z,6140.00
2023-02-25T11:30:19.554Z,6744.00
2023-02-25T11:31:19.722Z,7580.00
2023-02-25T11:32:19.640Z,7276.00
2023-02-25T11:33:19.532Z,7408.00
2023-02-25T11:34:19.522Z,8048.00
2023-02-25T11:35:19.539Z,8208.00
2023-02-25T11:36:19.519Z,7892.00
2023-02-25T11:37:20.499Z,7924.00
2023-02-25T11:38:19.496Z,7832.00
2023-02-25T11:39:19.491Z,8120.00
2023-02-25T11:40:19.493Z,6860.00
2023-02-25T11:41:19.493Z,5156.00
2023-02-25T11:42:19.462Z,4256.00
2023-02-25T11:43:19.450Z,3580.00
2023-02-25T11:44:19.465Z,3212.00
2023-02-25T11:45:19.461Z,3104.00
2023-02-25T11:46:19.570Z,2872.00
2023-02-25T11:47:19.446Z,2724.00
2023-02-25T11:48:19.412Z,2712.00
2023-02-25T11:49:19.410Z,2672.00
2023-02-25T11:50:19.405Z,2844.00
2023-02-25T11:51:19.412Z,2816.00
2023-02-25T11:52:19.394Z,2536.00
2023-02-25T11:53:19.377Z,1956.00
2023-02-25T11:54:19.378Z,2848.00
2023-02-25T11:55:19.353Z,3940.00
2023-02-25T11:56:19.402Z,4444.00
2023-02-25T11:57:19.341Z,5292.00
2023-02-25T11:58:19.331Z,5928.00
2023-02-25T11:59:19.348Z,6228.00
2023-02-25T12:00:19.334Z,6016.00
2023-02-25T12:01:19.336Z,5720.00
2023-02-25T12:02:19.295Z,5784.00
2023-02-25T12:03:19.297Z,6216.00
2023-02-25T12:04:19.280Z,7216.00
2023-02-25T12:05:19.285Z,7480.00
2023-02-25T12:06:19.262Z,7544.00
2023-02-25T12:07:19.287Z,7540.00
2023-02-25T12:08:19.261Z,7640.00
2023-02-25T12:09:19.239Z,7984.00
2023-02-25T12:10:19.247Z,8132.00
2023-02-25T12:11:19.224Z,8256.00
2023-02-25T12:12:19.237Z,8528.00
2023-02-25T12:13:19.246Z,8948.00
2023-02-25T12:14:19.199Z,8912.00
2023-02-25T12:15:19.186Z,8636.00
2023-02-25T12:16:19.266Z,8004.00
2023-02-25T12:17:19.205Z,7820.00
2023-02-25T12:18:19.206Z,8180.00
2023-02-25T12:19:19.159Z,7720.00
2023-02-25T12:20:19.149Z,7892.00
2023-02-25T12:21:19.148Z,8060.00
2023-02-25T12:22:19.162Z,7052.00
2023-02-25T12:23:19.126Z,7012.00
2023-02-25T12:24:19.117Z,6928.00
2023-02-25T12:25:19.124Z,6968.00
2023-02-25T12:26:20.056Z,7264.00
2023-02-25T12:27:19.123Z,6772.00
2023-02-25T12:28:19.089Z,6352.00
2023-02-25T12:29:19.077Z,6508.00
2023-02-25T12:30:19.069Z,6424.00
2023-02-25T12:31:19.065Z,6484.00
2023-02-25T12:32:19.104Z,6544.00
2023-02-25T12:33:19.058Z,6768.00
2023-02-25T12:34:21.066Z,7120.00
2023-02-25T12:35:19.027Z,7460.00
2023-02-25T12:36:20.050Z,7748.00
2023-02-25T12:37:19.031Z,7620.00
2023-02-25T12:38:20.025Z,6700.00
2023-02-25T12:39:19.011Z,7344.00
2023-02-25T12:40:19.001Z,7772.00
2023-02-25T12:41:19.007Z,7796.00